createdAt,value
2022-08-31T00:02:41.447Z,60.73
2022-08-31T00:06:29.243Z,60.84
2022-08-31T00:10:17.226Z,61.11
2022-08-31T00:14:05.095Z,61.14
2022-08-31T00:17:45.087Z,60.93
2022-08-31T00:21:34.048Z,61.11
2022-08-31T00:25:21.336Z,61.58
2022-08-31T00:29:09.220Z,61.75
2022-08-31T00:32:58.227Z,61.64
2022-08-31T00:36:46.870Z,61.43
2022-08-31T00:40:44.278Z,61.51
2022-08-31T00:44:42.403Z,61.93
2022-08-31T00:48:30.374Z,62.12
2022-08-31T00:52:24.296Z,62.51
2022-08-31T00:56:15.350Z,63.32
2022-08-31T01:00:03.298Z,63.86
2022-08-31T01:03:53.432Z,63.00
2022-08-31T01:07:41.501Z,62.92
2022-08-31T01:11:29.816Z,63.32
2022-08-31T01:15:17.468Z,63.83
2022-08-31T01:19:05.055Z,63.27
2022-08-31T01:23:04.562Z,62.04
2022-08-31T01:26:55.459Z,62.79
2022-08-31T01:30:46.771Z,62.32
2022-08-31T01:34:33.934Z,61.77
2022-08-31T01:38:21.767Z,61.85
2022-08-31T01:42:09.644Z,61.65
2022-08-31T01:45:59.029Z,61.50
2022-08-31T01:49:46.792Z,60.95
2022-08-31T01:53:34.416Z,60.67
2022-08-31T01:57:32.904Z,61.31
2022-08-31T02:01:32.950Z,61.50
2022-08-31T02:05:21.669Z,62.42
2022-08-31T02:09:09.523Z,63.19
2022-08-31T02:12:57.339Z,63.42
2022-08-31T02:16:51.865Z,62.85
2022-08-31T02:20:39.795Z,62.31
2022-08-31T02:24:27.817Z,63.36
2022-08-31T02:28:15.851Z,63.53
2022-08-31T02:32:03.617Z,63.54
2022-08-31T02:35:53.583Z,64.01
2022-08-31T02:39:42.122Z,64.16
2022-08-31T02:43:29.778Z,64.45
2022-08-31T02:47:17.548Z,64.63
2022-08-31T02:51:23.023Z,65.90
2022-08-31T02:55:11.043Z,64.41
2022-08-31T02:58:59.015Z,64.21
2022-08-31T03:02:34.806Z,65.31
2022-08-31T03:06:22.531Z,64.98
2022-08-31T03:10:10.136Z,64.13
2022-08-31T03:13:58.963Z,63.61
2022-08-31T03:17:46.923Z,63.30
2022-08-31T03:21:35.127Z,63.15
2022-08-31T03:25:23.006Z,63.37
2022-08-31T03:29:10.573Z,64.10
2022-08-31T03:33:03.514Z,64.62
2022-08-31T03:36:51.290Z,65.39
2022-08-31T03:40:39.179Z,65.45
2022-08-31T03:44:27.141Z,65.17
2022-08-31T03:48:15.207Z,64.37
2022-08-31T03:52:03.076Z,63.97
2022-08-31T03:55:50.769Z,63.62
2022-08-31T03:59:38.338Z,63.96
2022-08-31T04:03:38.248Z,63.34
2022-08-31T04:07:44.443Z,62.54
2022-08-31T04:11:44.409Z,62.41
2022-08-31T04:15:48.837Z,61.70
2022-08-31T04:19:43.011Z,60.85
2022-08-31T04:23:29.586Z,60.58
2022-08-31T04:27:27.498Z,60.62
2022-08-31T04:31:17.968Z,60.51
2022-08-31T04:35:05.672Z,60.51
2022-08-31T04:38:53.865Z,62.05
2022-08-31T04:42:41.990Z,63.84
2022-08-31T04:46:29.836Z,63.94
2022-08-31T04:50:17.783Z,63.44
2022-08-31T04:54:04.431Z,63.91
2022-08-31T04:57:52.460Z,62.83
2022-08-31T05:01:43.353Z,63.21
2022-08-31T05:05:29.948Z,63.38
2022-08-31T05:09:17.692Z,63.73
2022-08-31T05:13:06.228Z,63.83
2022-08-31T05:16:46.835Z,63.38
2022-08-31T05:20:34.511Z,63.57
2022-08-31T05:24:22.572Z,63.94
2022-08-31T05:28:11.705Z,63.60
2022-08-31T05:31:59.631Z,63.87
2022-08-31T05:35:47.431Z,62.65
2022-08-31T05:39:35.525Z,61.20
2022-08-31T05:43:23.480Z,61.34
2022-08-31T05:47:10.742Z,60.66
2022-08-31T05:50:58.871Z,60.60
2022-08-31T05:54:46.868Z,60.87
2022-08-31T05:58:34.986Z,61.06
2022-08-31T06:02:22.639Z,61.01
2022-08-31T06:06:14.520Z,61.27
2022-08-31T06:10:02.238Z,60.24
2022-08-31T06:13:50.230Z,59.57
2022-08-31T06:17:38.036Z,59.67
2022-08-31T06:21:29.644Z,58.94
2022-08-31T06:25:19.950Z,58.29
2022-08-31T06:29:12.786Z,56.99
2022-08-31T06:33:01.243Z,56.45
2022-08-31T06:36:48.815Z,56.21
2022-08-31T06:40:48.619Z,56.23
2022-08-31T06:44:48.633Z,55.78
2022-08-31T06:48:36.410Z,54.56
2022-08-31T06:52:24.249Z,54.86
2022-08-31T06:56:24.688Z,53.37
2022-08-31T07:00:13.696Z,53.30
2022-08-31T07:04:04.489Z,53.24
2022-08-31T07:07:52.258Z,52.67
2022-08-31T07:11:44.339Z,50.51
2022-08-31T07:15:32.596Z,48.48
2022-08-31T07:19:20.992Z,47.16
2022-08-31T07:23:08.794Z,46.14
2022-08-31T07:26:56.861Z,44.82
2022-08-31T07:30:45.102Z,43.22
2022-08-31T07:34:32.905Z,43.15
2022-08-31T07:38:24.933Z,42.44
2022-08-31T07:42:21.581Z,44.30
2022-08-31T07:46:12.978Z,43.59
2022-08-31T07:50:02.150Z,43.06
2022-08-31T07:53:59.021Z,43.40
2022-08-31T07:57:46.849Z,44.04
2022-08-31T08:01:36.018Z,44.27
2022-08-31T08:05:27.321Z,44.99
2022-08-31T08:09:24.692Z,43.99
2022-08-31T08:13:17.131Z,44.03
2022-08-31T08:17:10.939Z,44.39
2022-08-31T08:20:59.227Z,44.23
2022-08-31T08:24:47.030Z,42.99
2022-08-31T08:28:47.148Z,41.41
2022-08-31T08:32:35.092Z,41.02
2022-08-31T08:36:24.291Z,42.08
2022-08-31T08:40:12.575Z,42.71
2022-08-31T08:44:01.807Z,41.83
2022-08-31T08:47:55.981Z,43.10
2022-08-31T08:51:44.260Z,44.27
2022-08-31T08:55:32.130Z,42.69
2022-08-31T08:59:20.687Z,41.60
2022-08-31T09:03:08.722Z,43.15
2022-08-31T09:07:21.906Z,43.41
2022-08-31T09:11:12.655Z,43.50
2022-08-31T09:15:01.706Z,43.80
2022-08-31T09:18:50.419Z,43.74
2022-08-31T09:22:44.480Z,43.70
2022-08-31T09:26:32.102Z,43.39
2022-08-31T09:30:34.989Z,42.47
2022-08-31T09:34:28.989Z,41.28
2022-08-31T09:38:16.859Z,41.09
2022-08-31T09:42:10.621Z,40.84
2022-08-31T09:46:02.372Z,40.12
2022-08-31T09:49:54.582Z,39.43
2022-08-31T09:53:46.298Z,38.34
2022-08-31T09:57:35.729Z,37.15
2022-08-31T10:01:40.839Z,37.42
2022-08-31T10:05:30.618Z,37.81
2022-08-31T10:09:32.104Z,36.66
2022-08-31T10:13:29.586Z,36.86
2022-08-31T10:17:22.001Z,35.84
2022-08-31T10:21:11.305Z,34.92
2022-08-31T10:25:02.665Z,33.57
2022-08-31T10:29:22.779Z,33.50
2022-08-31T10:33:18.070Z,33.68
2022-08-31T10:37:07.026Z,33.63
2022-08-31T10:41:01.154Z,32.41
2022-08-31T10:45:01.646Z,32.49
2022-08-31T10:48:49.805Z,32.16
2022-08-31T10:52:49.856Z,32.82
2022-08-31T10:56:41.338Z,32.73
2022-08-31T11:00:32.905Z,33.17
2022-08-31T11:04:23.801Z,32.72
2022-08-31T11:08:24.463Z,32.57
2022-08-31T11:12:18.175Z,32.56
2022-08-31T11:16:06.470Z,32.49
2022-08-31T11:20:03.764Z,31.95
2022-08-31T11:24:02.529Z,30.81
2022-08-31T11:27:58.952Z,29.94
2022-08-31T11:31:49.696Z,29.58
2022-08-31T11:35:42.195Z,28.85
2022-08-31T11:39:48.027Z,29.04
2022-08-31T11:43:37.085Z,30.14
2022-08-31T11:47:25.764Z,29.38
2022-08-31T11:51:40.945Z,28.99
2022-08-31T11:55:30.154Z,30.70
2022-08-31T11:59:19.246Z,31.91
2022-08-31T12:03:19.923Z,32.54
2022-08-31T12:07:09.183Z,34.16
2022-08-31T12:11:15.459Z,34.26
2022-08-31T12:15:01.818Z,35.08
2022-08-31T12:18:46.596Z,34.95
2022-08-31T12:22:36.318Z,34.99
2022-08-31T12:26:23.190Z,35.18
2022-08-31T12:30:21.239Z,34.98
2022-08-31T12:34:09.169Z,35.00
2022-08-31T12:37:57.578Z,34.84
2022-08-31T12:41:45.940Z,34.49
2022-08-31T12:45:34.201Z,35.39
2022-08-31T12:49:43.589Z,36.02
2022-08-31T12:53:34.374Z,35.54
2022-08-31T12:57:26.940Z,35.50
2022-08-31T13:01:24.342Z,35.54
2022-08-31T13:05:17.475Z,34.60
2022-08-31T13:09:23.607Z,34.13
2022-08-31T13:17:36.968Z,34.22
2022-08-31T13:21:27.932Z,33.46
2022-08-31T13:25:07.235Z,34.13
2022-08-31T13:28:55.636Z,32.78
2022-08-31T13:32:52.678Z,33.11
2022-08-31T13:36:53.726Z,32.71
2022-08-31T13:40:48.106Z,33.09
2022-08-31T13:44:36.172Z,33.26
2022-08-31T13:48:24.072Z,34.74
2022-08-31T13:52:14.344Z,34.93
2022-08-31T13:56:17.037Z,35.12
2022-08-31T14:00:14.745Z,34.43
2022-08-31T14:04:12.924Z,33.26
2022-08-31T14:08:03.862Z,33.61
2022-08-31T14:11:52.262Z,34.83
2022-08-31T14:15:43.241Z,35.03
2022-08-31T14:19:34.059Z,34.99
2022-08-31T14:23:27.901Z,35.25
2022-08-31T14:27:18.877Z,35.72
2022-08-31T14:31:05.819Z,35.43
2022-08-31T14:35:12.172Z,35.56
2022-08-31T14:38:54.354Z,35.02
2022-08-31T14:42:42.732Z,35.39
2022-08-31T14:46:31.082Z,34.34
2022-08-31T14:50:19.852Z,34.27
2022-08-31T14:54:07.855Z,33.94
2022-08-31T14:57:56.201Z,33.74
2022-08-31T15:01:46.740Z,34.20
2022-08-31T15:05:35.911Z,33.58
2022-08-31T15:09:25.128Z,33.67
2022-08-31T15:13:13.476Z,32.90
2022-08-31T15:17:02.383Z,33.16
2022-08-31T15:20:52.357Z,32.90
2022-08-31T15:24:41.738Z,33.50
2022-08-31T15:28:32.098Z,32.64
2022-08-31T15:32:21.335Z,32.91
2022-08-31T15:36:13.052Z,32.46
2022-08-31T15:40:04.132Z,33.14
2022-08-31T15:43:57.116Z,32.85
2022-08-31T15:47:46.412Z,33.26
2022-08-31T15:51:34.361Z,34.39
2022-08-31T15:55:22.599Z,33.70
2022-08-31T15:59:11.092Z,33.87
2022-08-31T16:02:59.621Z,34.40
2022-08-31T16:06:48.141Z,34.27
2022-08-31T16:10:36.116Z,33.71
2022-08-31T16:14:24.938Z,34.20
2022-08-31T16:18:14.728Z,34.23
2022-08-31T16:22:06.645Z,34.65
2022-08-31T16:25:55.069Z,35.27
2022-08-31T16:29:44.155Z,34.40
2022-08-31T16:33:32.663Z,34.97
2022-08-31T16:37:21.925Z,34.68
2022-08-31T16:41:10.832Z,35.13
2022-08-31T16:45:02.164Z,35.42
2022-08-31T16:48:49.832Z,35.45
2022-08-31T16:52:38.296Z,36.21
2022-08-31T16:56:27.497Z,36.93
2022-08-31T17:00:15.671Z,37.23
2022-08-31T17:04:05.388Z,37.91
2022-08-31T17:07:53.450Z,38.50
2022-08-31T17:11:41.637Z,38.58
2022-08-31T17:15:32.478Z,38.10
2022-08-31T17:19:20.217Z,37.85
2022-08-31T17:23:09.182Z,38.75
2022-08-31T17:26:56.722Z,41.16
2022-08-31T17:30:46.902Z,41.51
2022-08-31T17:34:34.747Z,40.66
2022-08-31T17:38:22.801Z,40.55
2022-08-31T17:42:11.181Z,40.17
2022-08-31T17:46:01.596Z,40.83
2022-08-31T17:49:50.004Z,41.51
2022-08-31T17:53:37.618Z,42.34
2022-08-31T17:57:26.485Z,42.70
2022-08-31T18:01:16.996Z,42.98
2022-08-31T18:05:11.564Z,42.45
2022-08-31T18:08:59.960Z,42.06
2022-08-31T18:12:48.962Z,41.13
2022-08-31T18:16:23.216Z,41.67
2022-08-31T18:20:12.665Z,42.02
2022-08-31T18:24:01.544Z,41.79
2022-08-31T18:27:50.215Z,41.78
2022-08-31T18:31:38.830Z,41.85
2022-08-31T18:35:29.328Z,41.96
2022-08-31T18:39:34.459Z,41.82
2022-08-31T18:43:26.125Z,42.13
2022-08-31T18:47:13.887Z,42.04
2022-08-31T18:51:01.938Z,42.28
2022-08-31T18:54:49.912Z,42.05
2022-08-31T18:58:32.035Z,41.98
2022-08-31T19:02:21.438Z,42.15
2022-08-31T19:06:11.132Z,42.33
2022-08-31T19:09:59.589Z,42.43
2022-08-31T19:13:51.346Z,42.89
2022-08-31T19:17:40.673Z,42.33
2022-08-31T19:21:30.381Z,42.04
2022-08-31T19:25:18.561Z,42.05
2022-08-31T19:29:07.409Z,42.24
2022-08-31T19:32:56.032Z,42.23
2022-08-31T19:36:44.121Z,42.02
2022-08-31T19:40:36.887Z,42.54
2022-08-31T19:44:26.563Z,42.87
2022-08-31T19:48:17.230Z,43.10
2022-08-31T19:52:05.722Z,43.61
2022-08-31T19:55:53.546Z,43.74
2022-08-31T19:59:41.155Z,43.87
2022-08-31T20:03:29.158Z,44.02
2022-08-31T20:07:17.462Z,44.20
2022-08-31T20:11:05.898Z,44.34
2022-08-31T20:14:53.147Z,44.14
2022-08-31T20:18:40.893Z,44.65
2022-08-31T20:22:29.888Z,44.81
2022-08-31T20:26:17.512Z,45.04
2022-08-31T20:30:07.006Z,45.30
2022-08-31T20:33:55.028Z,46.00
2022-08-31T20:37:43.631Z,45.76
2022-08-31T20:41:32.276Z,46.02
2022-08-31T20:45:21.027Z,46.39
2022-08-31T20:49:08.307Z,47.18
2022-08-31T20:52:56.891Z,48.67
2022-08-31T20:56:44.908Z,49.59
2022-08-31T21:00:35.194Z,50.45
2022-08-31T21:04:22.656Z,50.12
2022-08-31T21:08:10.374Z,49.62
2022-08-31T21:11:57.933Z,49.39
2022-08-31T21:15:46.955Z,49.33
2022-08-31T21:19:34.670Z,49.18
2022-08-31T21:23:22.529Z,48.63
2022-08-31T21:27:10.471Z,48.67
2022-08-31T21:30:58.357Z,48.58
2022-08-31T21:34:46.319Z,49.47
2022-08-31T21:38:34.215Z,50.04
2022-08-31T21:42:22.144Z,50.34
2022-08-31T21:46:06.399Z,50.81
2022-08-31T21:49:53.945Z,50.84
2022-08-31T21:53:41.602Z,50.85
2022-08-31T21:57:32.240Z,51.61
2022-08-31T22:01:21.258Z,52.40
2022-08-31T22:05:09.583Z,52.63
2022-08-31T22:08:57.562Z,51.87
2022-08-31T22:12:44.904Z,51.87
2022-08-31T22:16:32.679Z,51.89
2022-08-31T22:20:20.171Z,52.53
2022-08-31T22:23:57.054Z,52.94
2022-08-31T22:27:45.737Z,52.98
2022-08-31T22:31:33.837Z,53.31
2022-08-31T22:35:22.121Z,52.91
2022-08-31T22:39:09.976Z,52.15
2022-08-31T22:42:57.881Z,52.07
2022-08-31T22:46:47.059Z,52.19
2022-08-31T22:50:14.660Z,51.95
2022-08-31T22:53:58.214Z,51.76
2022-08-31T22:57:46.402Z,51.10
2022-08-31T23:01:35.200Z,51.28
2022-08-31T23:05:23.079Z,51.06
2022-08-31T23:09:10.883Z,51.00
2022-08-31T23:12:58.560Z,52.30
2022-08-31T23:16:45.987Z,52.72
2022-08-31T23:20:36.625Z,52.46
2022-08-31T23:24:24.508Z,52.23
2022-08-31T23:28:12.561Z,53.03
2022-08-31T23:31:47.444Z,53.58
2022-08-31T23:35:34.833Z,53.63
2022-08-31T23:39:22.675Z,53.80
2022-08-31T23:43:10.976Z,53.72
2022-08-31T23:47:01.876Z,53.40
2022-08-31T23:50:49.720Z,53.73
2022-08-31T23:54:29.652Z,54.27
2022-08-31T23:58:15.373Z,54.28
